Time;durP1;ratioP1;P1;durP2;ratioP2;P2;SDS_P1;SDS_P2;PMS_P1;PMS_P2;Temp;Humidity;BMP_temperature;BMP_pressure;BME280_temperature;BME280_humidity;BME280_pressure;Samples;Min_cycle;Max_cycle;Signal;HPM_P1;HPM_P2
2021/12/16 00:08:57;;;;;;;23.40;11.18;;;8.50;99.90;;;;;;4995472;28;20050;-87
2021/12/16 00:19:30;;;;;;;19.95;11.60;;;8.50;99.90;;;;;;4996250;28;20046;-89
2021/12/16 00:20:23;;;;;;;24.08;12.35;;;8.60;99.90;;;;;;4992610;28;20058;-88
2021/12/16 00:33:18;;;;;;;26.58;12.50;;;8.50;99.90;;;;;;4981490;28;20058;-87
2021/12/16 00:35:47;;;;;;;28.63;12.10;;;8.50;99.90;;;;;;4978622;28;20138;-89
2021/12/16 00:38:13;;;;;;;29.00;13.20;;;8.50;99.90;;;;;;4975287;28;20058;-87
2021/12/16 00:40:42;;;;;;;24.40;12.85;;;8.60;99.90;;;;;;4976523;28;20050;-88
2021/12/16 00:43:16;;;;;;;24.42;12.15;;;8.50;99.90;;;;;;4961405;28;20123;-88
2021/12/16 00:48:58;;;;;;;24.42;12.57;;;8.70;99.90;;;;;;4982058;28;20119;-87
2021/12/16 00:54:13;;;;;;;29.42;13.23;;;8.60;99.90;;;;;;4984822;28;20062;-86
2021/12/16 00:56:40;;;;;;;25.58;13.38;;;8.50;99.90;;;;;;4997802;28;20233;-88
2021/12/16 00:59:09;;;;;;;28.35;12.73;;;8.50;99.90;;;;;;4993140;28;20046;-87
2021/12/16 01:01:43;;;;;;;29.55;13.00;;;8.50;99.90;;;;;;4985945;28;20569;-88
2021/12/16 01:06:58;;;;;;;25.87;13.87;;;8.40;99.90;;;;;;4973777;28;20459;-87
2021/12/16 01:39:56;;;;;;;30.25;14.18;;;8.40;99.90;;;;;;4977843;28;20097;-88
2021/12/16 01:42:40;;;;;;;25.88;12.85;;;8.40;99.90;;;;;;4979859;28;20072;-88
2021/12/16 01:50:34;;;;;;;28.85;15.00;;;8.50;99.90;;;;;;4992438;28;20055;-86
2021/12/16 01:55:34;;;;;;;28.65;13.75;;;9.40;99.90;;;;;;4975927;28;20346;-86
2021/12/16 01:58:11;;;;;;;31.13;14.10;;;8.60;99.90;;;;;;4977192;28;20058;-88
2021/12/16 02:00:56;;;;;;;25.08;13.40;;;8.60;99.90;;;;;;4961505;28;20054;-88
2021/12/16 02:03:37;;;;;;;26.00;13.88;;;8.80;99.90;;;;;;4977773;28;20153;-88
2021/12/16 02:06:12;;;;;;;26.15;13.65;;;8.70;99.90;;;;;;4978283;28;20054;-86
2021/12/16 02:08:39;;;;;;;28.95;14.48;;;8.60;99.90;;;;;;4976705;28;20483;-88
2021/12/16 02:27:30;;;;;;;30.45;14.45;;;8.60;99.90;;;;;;4978163;28;20046;-89
2021/12/16 02:33:14;;;;;;;30.42;15.32;;;8.60;99.90;;;;;;4977552;28;20066;-88
2021/12/16 02:35:47;;;;;;;29.13;14.90;;;8.60;99.90;;;;;;4990714;28;20101;-90
2021/12/16 02:38:17;;;;;;;29.25;16.52;;;8.60;99.90;;;;;;4976980;28;20057;-88
2021/12/16 02:40:44;;;;;;;37.88;16.95;;;8.60;99.90;;;;;;4959331;28;20065;-89
2021/12/16 02:43:37;;;;;;;31.50;16.15;;;8.60;99.90;;;;;;4991788;28;20050;-88
2021/12/16 02:48:39;;;;;;;30.02;17.23;;;8.60;99.90;;;;;;4976323;28;20053;-88
2021/12/16 02:51:16;;;;;;;32.05;17.05;;;8.60;99.90;;;;;;4991665;28;20042;-89
2021/12/16 02:53:47;;;;;;;34.30;17.83;;;8.50;99.90;;;;;;4991291;28;20065;-89
2021/12/16 02:56:13;;;;;;;32.53;17.83;;;8.50;99.90;;;;;;4975248;28;20419;-91
2021/12/16 02:58:40;;;;;;;33.30;17.90;;;8.50;99.90;;;;;;4990918;28;20051;-89
2021/12/16 03:01:30;;;;;;;37.05;18.42;;;8.50;99.90;;;;;;4975659;28;20521;-88
2021/12/16 03:03:56;;;;;;;31.60;17.05;;;8.50;99.90;;;;;;4977619;28;20054;-89
2021/12/16 03:06:22;;;;;;;31.02;18.08;;;8.60;99.90;;;;;;4975352;28;20478;-89
2021/12/16 03:08:48;;;;;;;30.88;17.80;;;8.50;99.90;;;;;;4974227;28;20085;-89
2021/12/16 03:11:31;;;;;;;40.63;19.73;;;8.50;99.90;;;;;;4991223;28;20096;-89
2021/12/16 03:22:02;;;;;;;37.50;19.88;;;8.50;99.90;;;;;;4978349;28;20076;-89
2021/12/16 03:24:58;;;;;;;40.25;19.63;;;8.60;99.90;;;;;;4975879;28;20061;-88
2021/12/16 03:34:59;;;;;;;37.67;21.90;;;8.40;99.90;;;;;;4974305;28;20077;-88
2021/12/16 03:37:24;;;;;;;41.70;21.92;;;8.40;99.90;;;;;;4990867;28;20058;-88
2021/12/16 03:39:55;;;;;;;40.42;21.50;;;8.40;99.90;;;;;;4974184;28;20105;-88
2021/12/16 03:42:27;;;;;;;39.90;21.23;;;8.40;99.90;;;;;;4990695;28;20050;-88
2021/12/16 03:44:59;;;;;;;41.80;22.85;;;8.40;99.90;;;;;;4974214;28;20089;-88
2021/12/16 03:47:35;;;;;;;38.08;21.90;;;8.40;99.90;;;;;;4990820;28;20057;-87
2021/12/16 03:50:03;;;;;;;42.45;21.83;;;8.40;99.90;;;;;;4974190;28;20051;-88
2021/12/16 03:52:28;;;;;;;41.67;22.65;;;8.50;99.90;;;;;;4974674;28;20488;-87
2021/12/16 03:54:54;;;;;;;41.83;22.77;;;8.50;99.90;;;;;;4990126;28;20096;-88
2021/12/16 03:57:23;;;;;;;41.63;22.80;;;8.30;99.90;;;;;;4974070;28;20410;-88
2021/12/16 03:59:49;;;;;;;43.63;23.40;;;8.20;99.90;;;;;;4973760;28;20065;-86
2021/12/16 04:02:21;;;;;;;45.03;22.95;;;8.10;99.90;;;;;;4974446;28;20387;-88
2021/12/16 04:04:48;;;;;;;50.55;22.17;;;8.00;99.90;;;;;;4958038;28;20050;-88
2021/12/16 04:07:14;;;;;;;48.15;24.48;;;7.90;99.90;;;;;;4990333;28;20065;-89
2021/12/16 04:09:39;;;;;;;42.65;23.50;;;7.80;99.90;;;;;;4974291;28;20054;-88
2021/12/16 04:12:11;;;;;;;53.92;24.52;;;7.80;99.90;;;;;;4990103;28;20446;-88
2021/12/16 04:14:38;;;;;;;50.38;25.00;;;7.80;99.90;;;;;;4974400;28;20049;-88
2021/12/16 04:17:09;;;;;;;52.92;26.58;;;7.70;99.90;;;;;;4990368;28;20050;-88
2021/12/16 04:19:35;;;;;;;53.78;27.33;;;7.70;99.90;;;;;;4974150;28;20137;-88
2021/12/16 04:22:11;;;;;;;53.65;26.92;;;7.60;99.90;;;;;;4973680;28;20984;-87
2021/12/16 04:24:37;;;;;;;61.45;27.95;;;7.60;99.90;;;;;;4990458;28;20388;-88
2021/12/16 04:27:03;;;;;;;53.35;26.17;;;7.50;99.90;;;;;;4973250;28;20189;-89
2021/12/16 04:29:28;;;;;;;61.70;28.70;;;7.40;99.90;;;;;;4973746;28;20133;-88
2021/12/16 04:31:55;;;;;;;64.43;29.95;;;7.40;99.90;;;;;;4957540;28;20149;-88
2021/12/16 04:34:21;;;;;;;67.25;29.15;;;7.40;99.90;;;;;;4990104;28;20046;-88
2021/12/16 04:36:46;;;;;;;67.43;29.95;;;7.30;99.90;;;;;;4989894;28;20073;-87
2021/12/16 04:39:17;;;;;;;61.63;29.40;;;7.30;99.90;;;;;;4990289;28;20042;-88
2021/12/16 04:41:43;;;;;;;68.90;31.05;;;7.30;99.90;;;;;;4974253;28;20053;-88
2021/12/16 04:44:10;;;;;;;69.35;31.58;;;7.20;99.90;;;;;;4973545;28;20054;-88
2021/12/16 04:46:36;;;;;;;68.63;31.05;;;7.20;99.90;;;;;;4990078;28;20057;-88
2021/12/16 04:49:01;;;;;;;67.20;30.83;;;7.20;99.90;;;;;;4973020;28;20076;-87
2021/12/16 04:51:30;;;;;;;77.57;32.88;;;7.20;99.90;;;;;;4973827;28;20541;-87
2021/12/16 04:53:56;;;;;;;71.45;33.05;;;7.10;99.90;;;;;;4991996;28;20052;-89
2021/12/16 04:56:22;;;;;;;72.57;33.58;;;7.20;99.90;;;;;;4977208;28;20133;-88
2021/12/16 04:58:48;;;;;;;85.38;35.58;;;7.10;99.90;;;;;;4993396;28;20057;-86
2021/12/16 05:01:14;;;;;;;75.22;33.60;;;7.20;99.90;;;;;;4977452;28;20058;-89
2021/12/16 05:03:40;;;;;;;75.10;34.10;;;7.20;99.90;;;;;;4977244;28;20058;-88
2021/12/16 05:06:06;;;;;;;78.95;34.38;;;7.20;99.90;;;;;;4992973;28;20061;-88
2021/12/16 05:08:31;;;;;;;78.50;34.35;;;7.20;99.90;;;;;;4977291;28;20470;-88
2021/12/16 05:11:00;;;;;;;76.95;34.13;;;7.20;99.90;;;;;;4993181;28;20105;-90
2021/12/16 05:13:27;;;;;;;80.20;35.20;;;7.20;99.90;;;;;;4977412;28;20061;-87
2021/12/16 05:15:55;;;;;;;75.53;33.85;;;7.30;99.90;;;;;;4976862;28;20442;-88
2021/12/16 05:18:25;;;;;;;80.57;35.45;;;7.30;99.90;;;;;;4993147;28;20113;-89
2021/12/16 05:20:51;;;;;;;72.35;34.72;;;7.30;99.90;;;;;;4977212;28;20062;-86
2021/12/16 05:28:28;;;;;;;84.22;36.67;;;7.40;99.90;;;;;;4976794;28;20046;-89
2021/12/16 05:30:54;;;;;;;90.25;35.47;;;7.40;99.90;;;;;;4976370;28;20457;-87
2021/12/16 05:33:20;;;;;;;82.10;34.20;;;7.40;99.90;;;;;;4976880;28;20046;-88
2021/12/16 05:35:46;;;;;;;69.55;34.03;;;7.40;99.90;;;;;;4976531;28;20462;-89
2021/12/16 05:38:12;;;;;;;72.97;33.65;;;7.40;99.90;;;;;;4992327;28;20057;-88
2021/12/16 05:40:38;;;;;;;73.35;34.22;;;7.50;99.90;;;;;;4994049;28;20050;-89
2021/12/16 05:43:06;;;;;;;75.10;32.38;;;7.50;99.90;;;;;;4993374;28;20046;-89
2021/12/16 05:45:32;;;;;;;77.55;34.75;;;7.50;99.90;;;;;;4992918;28;20054;-88
2021/12/16 05:47:59;;;;;;;77.60;33.60;;;7.60;99.90;;;;;;4976011;28;20130;-89
2021/12/16 05:50:25;;;;;;;67.78;33.90;;;7.60;99.90;;;;;;4976688;28;20471;-88
2021/12/16 05:52:53;;;;;;;68.60;33.58;;;7.60;99.90;;;;;;4995984;28;20061;-86
2021/12/16 05:55:19;;;;;;;79.88;34.05;;;7.60;99.90;;;;;;5003938;28;20546;-89
2021/12/16 05:57:45;;;;;;;75.95;33.78;;;7.60;99.90;;;;;;4998421;28;20100;-88
2021/12/16 06:00:14;;;;;;;74.60;32.75;;;7.70;99.90;;;;;;4982410;28;20050;-89
2021/12/16 06:02:40;;;;;;;63.80;31.77;;;7.60;99.90;;;;;;4981532;28;20050;-90
2021/12/16 06:05:06;;;;;;;65.60;31.67;;;7.60;99.90;;;;;;4975078;28;20061;-90
2021/12/16 06:07:32;;;;;;;77.03;33.78;;;7.60;99.90;;;;;;4993086;28;20046;-90
2021/12/16 06:09:58;;;;;;;64.70;31.35;;;7.60;99.90;;;;;;4992774;28;20469;-90
2021/12/16 06:12:25;;;;;;;72.13;33.38;;;7.70;99.90;;;;;;4976393;28;20482;-89
2021/12/16 06:26:24;;;;;;;68.30;31.73;;;7.70;99.90;;;;;;4978884;28;20057;-88
2021/12/16 06:28:25;;;;;;;62.25;29.60;;;7.70;99.90;;;;;;4924257;28;20056;-89
2021/12/16 06:30:50;;;;;;;61.60;30.17;;;7.70;99.90;;;;;;4976438;28;20372;-89
2021/12/16 06:33:18;;;;;;;59.95;30.17;;;8.00;99.90;;;;;;4992298;28;20539;-89
2021/12/16 06:35:44;;;;;;;65.38;30.25;;;7.80;99.90;;;;;;4960749;28;20574;-87
2021/12/16 06:38:09;;;;;;;65.57;28.70;;;7.70;99.90;;;;;;4992419;28;20130;-89
2021/12/16 06:40:35;;;;;;;67.70;30.33;;;7.60;99.90;;;;;;4976378;28;20430;-89
2021/12/16 06:43:02;;;;;;;77.25;32.05;;;7.80;99.90;;;;;;4992210;28;20521;-89
2021/12/16 06:45:32;;;;;;;75.00;31.70;;;7.50;99.90;;;;;;4993572;28;20162;-88
2021/12/16 06:48:06;;;;;;;63.35;30.67;;;7.40;99.90;;;;;;4976697;28;20503;-88
2021/12/16 06:50:49;;;;;;;61.53;30.25;;;7.10;99.90;;;;;;4977254;28;20129;-89
2021/12/16 06:53:23;;;;;;;75.97;32.53;;;7.30;99.90;;;;;;4978483;28;20134;-90
2021/12/16 06:56:01;;;;;;;75.00;32.13;;;7.40;99.90;;;;;;4976889;28;20053;-89
2021/12/16 06:58:46;;;;;;;69.13;31.73;;;7.30;99.90;;;;;;4977657;28;20093;-90
2021/12/16 07:01:20;;;;;;;73.38;32.05;;;7.30;99.90;;;;;;4991762;28;20057;-90
2021/12/16 07:03:49;;;;;;;70.72;31.27;;;7.30;99.90;;;;;;4977307;28;20569;-89
2021/12/16 07:06:20;;;;;;;76.70;31.90;;;7.20;99.90;;;;;;4976265;28;20054;-89
2021/12/16 07:08:46;;;;;;;76.75;32.40;;;7.10;99.90;;;;;;4959452;28;20494;-89
2021/12/16 07:11:12;;;;;;;77.47;33.70;;;7.30;99.90;;;;;;4990981;28;20060;-88
2021/12/16 07:13:41;;;;;;;76.80;34.47;;;7.80;99.90;;;;;;4975327;28;20476;-88
2021/12/16 07:16:09;;;;;;;88.35;36.33;;;7.00;99.90;;;;;;4990935;28;20051;-88
2021/12/16 07:18:34;;;;;;;80.60;33.53;;;7.00;99.90;;;;;;4991859;28;20065;-88
2021/12/16 07:21:00;;;;;;;96.38;35.47;;;7.20;99.90;;;;;;4975602;28;20058;-88
2021/12/16 07:23:26;;;;;;;98.68;36.72;;;6.90;99.90;;;;;;4959067;28;20054;-88
2021/12/16 07:25:52;;;;;;;95.30;36.63;;;6.90;99.90;;;;;;4975443;28;20078;-88
2021/12/16 07:28:18;;;;;;;101.78;38.42;;;6.90;99.90;;;;;;4992961;28;20054;-89
2021/12/16 07:30:44;;;;;;;98.45;40.47;;;6.90;99.90;;;;;;5007636;28;20080;-87
2021/12/16 07:33:11;;;;;;;98.05;40.95;;;6.80;99.90;;;;;;4987994;28;20050;-90
2021/12/16 07:35:37;;;;;;;123.25;44.35;;;6.80;99.90;;;;;;4975437;28;20058;-88
2021/12/16 07:38:03;;;;;;;115.68;43.38;;;6.80;99.90;;;;;;4973886;28;20058;-87
2021/12/16 07:40:30;;;;;;;96.47;39.97;;;6.70;99.90;;;;;;4990682;28;20050;-87
2021/12/16 07:45:33;;;;;;;125.35;42.85;;;6.70;99.90;;;;;;4976116;28;20086;-88
2021/12/16 07:47:58;;;;;;;128.10;43.05;;;6.70;99.90;;;;;;4974761;28;20046;-88
2021/12/16 07:50:24;;;;;;;117.00;42.88;;;6.60;99.90;;;;;;4974525;28;20054;-88
2021/12/16 07:52:50;;;;;;;110.57;44.15;;;6.70;99.90;;;;;;4990839;28;20571;-87
2021/12/16 07:55:16;;;;;;;112.68;43.20;;;6.60;99.90;;;;;;4974374;28;20125;-87
2021/12/16 07:57:42;;;;;;;115.40;42.55;;;6.60;99.90;;;;;;4974408;28;20058;-89
2021/12/16 08:00:28;;;;;;;125.18;44.45;;;6.50;99.90;;;;;;4974323;28;20046;-87
2021/12/16 08:02:54;;;;;;;108.55;40.47;;;6.60;99.90;;;;;;4991325;28;20062;-88
2021/12/16 08:05:21;;;;;;;113.57;42.17;;;6.60;99.90;;;;;;4990615;28;20046;-91
2021/12/16 08:07:47;;;;;;;115.03;42.28;;;6.50;99.90;;;;;;4990817;28;20161;-86
2021/12/16 08:10:16;;;;;;;130.02;44.25;;;6.60;99.90;;;;;;4974118;28;20062;-86
2021/12/16 08:12:41;;;;;;;116.70;42.15;;;6.50;99.90;;;;;;4992092;28;20057;-86
2021/12/16 08:15:08;;;;;;;106.50;40.60;;;6.60;99.90;;;;;;4974445;28;20054;-86
2021/12/16 08:17:34;;;;;;;131.65;46.17;;;6.60;99.90;;;;;;4974412;28;20046;-85
2021/12/16 08:19:59;;;;;;;130.10;43.83;;;6.70;99.90;;;;;;4974429;28;20136;-86
2021/12/16 08:22:25;;;;;;;124.70;43.90;;;6.80;99.90;;;;;;4974046;28;20057;-87
2021/12/16 08:24:51;;;;;;;145.88;46.03;;;6.80;99.90;;;;;;4974499;28;20057;-85
2021/12/16 08:27:17;;;;;;;143.20;45.83;;;6.80;99.90;;;;;;4973856;28;20161;-84
2021/12/16 08:29:43;;;;;;;113.38;42.85;;;6.90;99.90;;;;;;4978607;28;20501;-86
2021/12/16 08:32:08;;;;;;;126.95;45.35;;;6.90;99.90;;;;;;4978500;28;20061;-86
2021/12/16 08:34:37;;;;;;;134.80;44.78;;;7.00;99.90;;;;;;4977869;28;20057;-86
2021/12/16 08:37:04;;;;;;;134.07;44.60;;;7.10;99.90;;;;;;4978790;28;20070;-86
2021/12/16 08:39:29;;;;;;;141.70;46.10;;;7.20;99.90;;;;;;4993785;28;20112;-85
2021/12/16 08:41:56;;;;;;;124.75;44.88;;;7.40;99.90;;;;;;4994468;28;20125;-86
2021/12/16 08:44:22;;;;;;;118.15;43.70;;;7.40;99.90;;;;;;4977425;28;20524;-86
2021/12/16 08:46:51;;;;;;;137.63;44.47;;;7.50;99.90;;;;;;4977973;28;20150;-86
2021/12/16 08:49:17;;;;;;;119.93;41.70;;;7.60;99.90;;;;;;4990333;28;20082;-86
2021/12/16 08:51:45;;;;;;;107.28;41.47;;;7.80;99.90;;;;;;4984964;28;20487;-85
2021/12/16 08:54:11;;;;;;;113.18;43.53;;;7.80;99.90;;;;;;4972301;28;20058;-86
2021/12/16 08:56:37;;;;;;;106.72;40.42;;;8.00;99.90;;;;;;4992915;28;20081;-86
2021/12/16 08:59:04;;;;;;;107.05;42.10;;;8.10;99.90;;;;;;4961561;28;20117;-85
2021/12/16 09:01:31;;;;;;;97.82;39.58;;;8.20;99.90;;;;;;4993231;28;20050;-85
2021/12/16 09:03:57;;;;;;;89.65;37.70;;;8.30;99.90;;;;;;4977617;28;20431;-86
2021/12/16 09:06:23;;;;;;;96.63;38.00;;;8.20;99.90;;;;;;4977175;28;20150;-84
2021/12/16 09:08:49;;;;;;;96.45;36.72;;;8.20;99.90;;;;;;4993396;28;20054;-86
2021/12/16 09:11:19;;;;;;;99.20;38.97;;;8.20;99.90;;;;;;4993709;28;20414;-86
2021/12/16 09:13:46;;;;;;;99.40;38.22;;;8.30;99.90;;;;;;4993840;28;20054;-86
2021/12/16 09:16:15;;;;;;;101.80;37.65;;;8.20;99.90;;;;;;4961374;28;20050;-86
2021/12/16 09:18:42;;;;;;;114.63;38.90;;;8.20;99.90;;;;;;4977202;28;20105;-86
2021/12/16 09:21:10;;;;;;;92.07;36.95;;;8.20;99.90;;;;;;4993611;28;20193;-85
2021/12/16 09:23:36;;;;;;;104.07;39.60;;;8.10;99.90;;;;;;4992718;28;20050;-84
2021/12/16 09:26:01;;;;;;;93.30;37.35;;;8.40;99.90;;;;;;4993457;28;20050;-86
2021/12/16 09:28:27;;;;;;;111.60;39.05;;;8.10;99.90;;;;;;4976401;28;20047;-84
2021/12/16 09:30:53;;;;;;;108.95;37.95;;;8.10;99.90;;;;;;4993263;28;20058;-85
2021/12/16 09:33:22;;;;;;;117.80;41.90;;;8.00;99.90;;;;;;4976381;28;20578;-84
2021/12/16 09:35:49;;;;;;;117.15;40.72;;;8.10;99.90;;;;;;4993133;28;20054;-86
2021/12/16 09:38:15;;;;;;;116.00;40.38;;;8.00;99.90;;;;;;4976523;28;20050;-85
2021/12/16 09:40:48;;;;;;;119.85;40.80;;;8.10;99.90;;;;;;4960408;28;20483;-85
2021/12/16 09:43:14;;;;;;;135.93;42.13;;;8.10;99.90;;;;;;4993171;28;20061;-85
2021/12/16 09:45:40;;;;;;;142.45;43.58;;;8.20;99.90;;;;;;4992472;28;20058;-84
2021/12/16 09:48:06;;;;;;;148.18;42.85;;;8.20;99.90;;;;;;4992785;28;20049;-85
2021/12/16 09:50:31;;;;;;;142.98;41.83;;;8.30;99.90;;;;;;4976287;28;20061;-85
2021/12/16 09:52:57;;;;;;;174.82;43.80;;;8.50;99.90;;;;;;4992765;28;20125;-85
2021/12/16 09:55:23;;;;;;;168.57;44.38;;;8.30;99.90;;;;;;4976355;28;20137;-85
2021/12/16 09:57:49;;;;;;;243.32;48.35;;;8.20;99.90;;;;;;4992476;28;20120;-85
2021/12/16 10:00:18;;;;;;;150.40;43.10;;;8.20;99.90;;;;;;4976489;28;20062;-85
2021/12/16 10:02:46;;;;;;;317.25;53.33;;;8.20;99.90;;;;;;4976091;28;20117;-86
2021/12/16 10:05:12;;;;;;;248.18;51.20;;;8.20;99.90;;;;;;4992541;28;20085;-86
2021/12/16 10:07:37;;;;;;;212.25;48.42;;;8.20;99.90;;;;;;4975653;28;20460;-85
2021/12/16 10:10:06;;;;;;;281.40;51.25;;;8.20;99.90;;;;;;4976084;28;20519;-85
2021/12/16 10:12:37;;;;;;;243.45;48.67;;;8.20;99.90;;;;;;4975961;28;20046;-86
2021/12/16 10:17:22;;;;;;;226.93;46.90;;;8.30;99.90;;;;;;4993894;28;20085;-85
2021/12/16 10:17:53;;;;;;;156.23;42.33;;;8.40;99.90;;;;;;4993059;28;20380;-85
2021/12/16 10:20:26;;;;;;;220.10;45.35;;;8.30;99.90;;;;;;4976572;28;20371;-85
2021/12/16 10:23:07;;;;;;;240.45;48.47;;;8.20;99.90;;;;;;4976967;28;20076;-86
2021/12/16 10:25:44;;;;;;;201.10;45.70;;;8.20;99.90;;;;;;4975767;28;20098;-85
2021/12/16 10:28:14;;;;;;;150.73;40.40;;;8.30;99.90;;;;;;4975769;28;20056;-85
2021/12/16 10:31:02;;;;;;;382.83;53.50;;;8.30;99.90;;;;;;4991520;28;20042;-85
2021/12/16 10:33:49;;;;;;;241.55;50.10;;;8.40;99.90;;;;;;4992343;28;20106;-83
2021/12/16 10:36:23;;;;;;;324.23;53.78;;;8.40;99.90;;;;;;4975483;28;20054;-84
2021/12/16 10:39:04;;;;;;;278.85;50.47;;;8.50;99.90;;;;;;4975270;28;20930;-85
2021/12/16 10:41:36;;;;;;;293.92;51.83;;;8.50;99.90;;;;;;4991222;28;20046;-84
2021/12/16 10:44:27;;;;;;;194.52;45.03;;;8.50;99.90;;;;;;4992038;28;20193;-85
2021/12/16 10:47:00;;;;;;;224.60;47.72;;;8.50;99.90;;;;;;4991938;28;20053;-85
2021/12/16 10:49:35;;;;;;;187.38;45.42;;;8.50;99.90;;;;;;4992581;28;20054;-86
2021/12/16 10:52:07;;;;;;;202.48;45.17;;;8.60;99.90;;;;;;4992698;28;20486;-84
2021/12/16 10:54:36;;;;;;;263.05;50.17;;;8.60;99.90;;;;;;4991373;28;20050;-84
2021/12/16 10:57:14;;;;;;;240.75;48.13;;;8.60;99.90;;;;;;4959501;28;20058;-84
2021/12/16 10:59:45;;;;;;;183.30;42.90;;;8.70;99.90;;;;;;4992956;28;20124;-84
2021/12/16 11:02:19;;;;;;;227.27;47.17;;;8.70;99.90;;;;;;4987775;28;20057;-83
2021/12/16 11:05:17;;;;;;;143.27;39.72;;;8.70;99.90;;;;;;4985206;28;20460;-85
2021/12/16 11:07:47;;;;;;;206.13;43.53;;;8.70;99.90;;;;;;4974650;28;20086;-84
2021/12/16 11:10:19;;;;;;;388.65;55.42;;;8.80;99.90;;;;;;4975731;28;20104;-84
2021/12/16 11:13:07;;;;;;;273.50;48.03;;;8.80;99.90;;;;;;4991866;28;20051;-84
2021/12/16 11:15:34;;;;;;;162.93;39.75;;;8.80;99.90;;;;;;4990557;28;20144;-83
2021/12/16 11:18:16;;;;;;;198.82;43.08;;;8.90;99.90;;;;;;4992389;28;20091;-83
2021/12/16 11:20:49;;;;;;;215.27;43.63;;;8.90;99.90;;;;;;4990653;28;20058;-83
2021/12/16 11:23:37;;;;;;;150.27;40.22;;;8.90;99.90;;;;;;4992150;28;20061;-84
2021/12/16 11:26:20;;;;;;;192.32;43.33;;;8.80;99.90;;;;;;4975301;28;20108;-84
2021/12/16 11:28:49;;;;;;;124.90;38.80;;;8.80;99.90;;;;;;4973933;28;20479;-83
2021/12/16 11:31:27;;;;;;;252.27;47.10;;;8.80;99.90;;;;;;4990983;28;20089;-84
2021/12/16 11:33:57;;;;;;;158.88;42.10;;;8.90;99.90;;;;;;4975298;28;20054;-84
2021/12/16 11:36:34;;;;;;;169.07;41.42;;;8.90;99.90;;;;;;4992388;28;20384;-86
2021/12/16 11:39:11;;;;;;;145.23;38.55;;;8.90;99.90;;;;;;4975063;28;20085;-86
2021/12/16 11:41:40;;;;;;;144.18;37.53;;;8.90;99.90;;;;;;4990392;28;20054;-84
2021/12/16 11:44:20;;;;;;;157.75;39.88;;;8.90;99.90;;;;;;4974607;28;20121;-83
2021/12/16 11:46:56;;;;;;;120.10;35.30;;;9.00;99.90;;;;;;4974595;28;20050;-83
2021/12/16 11:49:42;;;;;;;105.07;34.17;;;9.00;99.90;;;;;;4990709;28;20112;-83
2021/12/16 11:52:15;;;;;;;118.38;36.92;;;8.90;99.90;;;;;;4990731;28;20105;-85
2021/12/16 11:55:10;;;;;;;103.40;33.40;;;8.90;99.90;;;;;;4973835;28;20102;-83
2021/12/16 11:57:47;;;;;;;94.65;33.60;;;8.90;99.90;;;;;;4989552;28;20065;-82
2021/12/16 12:00:20;;;;;;;103.72;33.13;;;9.00;99.90;;;;;;4990414;28;20077;-84
2021/12/16 12:02:51;;;;;;;104.50;34.65;;;8.90;99.90;;;;;;4973517;28;20090;-84
2021/12/16 12:05:24;;;;;;;79.80;30.60;;;8.90;99.90;;;;;;4990399;28;20108;-83
2021/12/16 12:08:00;;;;;;;85.07;32.95;;;9.00;99.90;;;;;;4973440;28;20050;-85
2021/12/16 12:11:00;;;;;;;96.90;36.35;;;9.00;99.90;;;;;;4958262;28;20064;-86
2021/12/16 12:13:30;;;;;;;120.90;37.65;;;9.00;99.90;;;;;;4991657;28;20403;-84
2021/12/16 12:16:03;;;;;;;113.55;36.33;;;9.10;99.90;;;;;;4973801;28;20050;-84
2021/12/16 12:18:33;;;;;;;112.35;37.20;;;9.00;99.90;;;;;;4990585;28;20050;-84
2021/12/16 12:21:34;;;;;;;99.53;35.47;;;9.00;99.90;;;;;;4990142;28;20058;-85
2021/12/16 12:24:14;;;;;;;92.20;34.35;;;9.10;99.90;;;;;;4990138;28;20058;-85
2021/12/16 12:26:48;;;;;;;100.15;34.70;;;9.10;99.90;;;;;;4974288;28;20188;-83
2021/12/16 12:29:23;;;;;;;85.65;32.67;;;9.20;99.90;;;;;;4974619;28;20073;-84
2021/12/16 12:31:50;;;;;;;;;;;9.20;99.90;;;;;;4974442;28;20197;-84
2021/12/16 12:34:16;;;;;;;89.07;32.97;;;9.10;99.90;;;;;;4990185;28;19933;-85
2021/12/16 12:36:41;;;;;;;84.63;32.22;;;9.20;99.90;;;;;;4974025;28;20463;-85
2021/12/16 12:39:09;;;;;;;102.50;36.65;;;9.20;99.90;;;;;;4990231;28;20050;-85
2021/12/16 12:41:35;;;;;;;104.85;35.50;;;9.20;99.90;;;;;;4974369;28;20438;-86
2021/12/16 12:44:04;;;;;;;92.47;34.08;;;9.10;99.90;;;;;;4973806;28;20065;-85
2021/12/16 12:46:32;;;;;;;68.18;28.45;;;9.20;99.90;;;;;;4974702;28;20050;-85
2021/12/16 12:49:00;;;;;;;70.68;29.00;;;9.30;99.90;;;;;;4973087;28;20050;-84
2021/12/16 12:51:34;;;;;;;75.35;29.30;;;9.30;99.90;;;;;;4990096;28;20058;-84
2021/12/16 12:54:16;;;;;;;67.38;27.67;;;9.30;99.90;;;;;;4989458;28;20136;-85
2021/12/16 12:56:42;;;;;;;69.00;27.80;;;9.20;99.90;;;;;;4957185;28;20058;-82
2021/12/16 12:59:11;;;;;;;65.20;26.35;;;9.20;99.90;;;;;;4990193;28;20046;-82
2021/12/16 13:01:40;;;;;;;62.22;26.52;;;9.20;99.90;;;;;;4990319;28;20455;-83
2021/12/16 13:04:24;;;;;;;65.07;27.63;;;9.20;99.90;;;;;;4989718;28;20077;-83
2021/12/16 13:06:59;;;;;;;65.28;26.67;;;9.20;99.90;;;;;;4991014;28;20090;-84
2021/12/16 13:09:49;;;;;;;68.97;27.77;;;9.20;99.90;;;;;;4973516;28;20058;-85
2021/12/16 13:12:35;;;;;;;71.20;28.05;;;9.20;99.90;;;;;;4990025;28;20503;-84
2021/12/16 13:15:19;;;;;;;79.03;28.95;;;9.10;99.90;;;;;;4977130;28;20058;-84
2021/12/16 13:28:38;;;;;;;80.75;28.17;;;9.20;99.90;;;;;;4993481;28;20046;-85
2021/12/16 13:31:22;;;;;;;87.00;27.48;;;9.30;99.90;;;;;;4977083;28;20538;-84
2021/12/16 13:33:55;;;;;;;72.45;27.27;;;9.30;99.90;;;;;;4976734;28;20065;-83
2021/12/16 13:36:40;;;;;;;78.10;27.35;;;9.30;99.90;;;;;;4978034;28;20380;-85
2021/12/16 13:39:18;;;;;;;83.05;28.05;;;9.30;99.90;;;;;;4992808;28;20097;-84
2021/12/16 13:41:57;;;;;;;78.65;26.45;;;9.30;99.90;;;;;;4994509;28;20064;-84
2021/12/16 13:44:49;;;;;;;69.68;25.85;;;9.30;99.90;;;;;;4977015;28;20050;-84
2021/12/16 14:05:18;;;;;;;65.32;20.67;;;9.20;99.90;;;;;;4992601;28;20065;-85
2021/12/16 14:07:58;;;;;;;72.72;20.80;;;9.20;99.90;;;;;;4992820;28;20058;-85
2021/12/16 14:10:35;;;;;;;67.18;21.65;;;9.20;99.90;;;;;;4978104;28;20062;-84
2021/12/16 14:16:27;;;;;;;77.30;22.17;;;9.20;99.90;;;;;;4974740;28;20058;-84
2021/12/16 14:41:48;;;;;;;64.78;20.15;;;9.10;99.90;;;;;;4989584;28;20062;-84
2021/12/16 14:47:01;;;;;;;66.10;22.35;;;9.10;99.90;;;;;;4989780;28;20117;-84
2021/12/16 14:49:35;;;;;;;75.90;24.50;;;9.10;99.90;;;;;;4975656;28;20117;-85
2021/12/16 14:52:02;;;;;;;65.75;21.77;;;9.10;99.90;;;;;;4988595;28;20050;-86
2021/12/16 14:54:28;;;;;;;64.10;22.80;;;9.10;99.90;;;;;;4989021;28;20396;-85
2021/12/16 14:57:00;;;;;;;71.85;22.92;;;9.00;99.90;;;;;;4972750;28;20054;-83
2021/12/16 14:59:27;;;;;;;79.20;24.23;;;9.00;99.90;;;;;;4973360;28;20486;-84
2021/12/16 15:01:54;;;;;;;67.85;23.23;;;9.00;99.90;;;;;;4991154;28;20056;-84
2021/12/16 15:04:24;;;;;;;77.95;24.75;;;9.00;99.90;;;;;;4989331;28;20159;-84
2021/12/16 15:06:58;;;;;;;78.22;25.02;;;9.00;99.90;;;;;;4988833;28;20053;-85
2021/12/16 15:09:28;;;;;;;94.88;25.98;;;9.20;99.90;;;;;;4989489;28;20065;-84
2021/12/16 15:14:36;;;;;;;102.28;28.17;;;9.00;99.90;;;;;;4973496;28;20057;-85
2021/12/16 15:45:06;;;;;;;113.15;27.27;;;8.70;99.90;;;;;;4975361;28;20140;-85
2021/12/16 15:47:47;;;;;;;109.65;26.73;;;8.70;99.90;;;;;;4973040;28;20109;-85
2021/12/16 15:50:14;;;;;;;85.15;24.50;;;8.70;99.90;;;;;;4972411;28;20097;-86
2021/12/16 15:52:42;;;;;;;97.65;25.65;;;8.70;99.90;;;;;;4973006;28;20069;-86
2021/12/16 15:55:14;;;;;;;92.13;25.55;;;8.60;99.90;;;;;;4972934;28;20058;-85
2021/12/16 15:57:40;;;;;;;84.35;24.58;;;8.60;99.90;;;;;;4972984;28;20085;-87
2021/12/16 16:00:09;;;;;;;70.22;21.45;;;8.60;99.90;;;;;;4971849;28;20062;-86
2021/12/16 16:02:34;;;;;;;101.57;27.13;;;8.60;99.90;;;;;;4989197;28;20132;-86
2021/12/16 16:05:00;;;;;;;98.90;27.42;;;8.60;99.90;;;;;;4972944;28;20129;-87
2021/12/16 16:07:26;;;;;;;91.82;25.75;;;8.70;99.90;;;;;;4972334;28;20050;-87
2021/12/16 16:09:52;;;;;;;84.00;23.73;;;8.60;99.90;;;;;;4989038;28;20051;-86
2021/12/16 16:12:21;;;;;;;90.25;25.83;;;8.60;99.90;;;;;;4971838;28;20058;-85
2021/12/16 16:14:49;;;;;;;89.65;25.60;;;8.50;99.90;;;;;;4972465;28;20133;-86
2021/12/16 16:17:18;;;;;;;125.22;28.42;;;8.60;99.90;;;;;;4972231;28;20454;-85
2021/12/16 16:19:45;;;;;;;125.63;28.20;;;8.60;99.90;;;;;;4973212;28;20062;-85
2021/12/16 16:22:11;;;;;;;94.95;27.17;;;8.60;99.90;;;;;;4988366;28;20160;-85
2021/12/16 16:24:41;;;;;;;98.38;28.27;;;8.60;99.90;;;;;;4988093;28;20058;-85
2021/12/16 16:27:19;;;;;;;119.68;28.73;;;8.60;99.90;;;;;;4956444;28;20113;-85